Time;durP1;ratioP1;P1;durP2;ratioP2;P2;SDS_P1;SDS_P2;PMS_P1;PMS_P2;Temp;Humidity;BMP_temperature;BMP_pressure;BME280_temperature;BME280_humidity;BME280_pressure;Samples;Min_cycle;Max_cycle;Signal;HPM_P1;HPM_P2
2022/08/25 00:01:51;;;;;;;8.37;3.90;;;21.20;11.30;;;;;;6263702;23;20497;-85
2022/08/25 00:04:37;;;;;;;6.50;3.53;;;21.10;11.50;;;;;;6261297;22;20462;-83
2022/08/25 00:07:22;;;;;;;8.30;4.10;;;21.00;11.70;;;;;;6263273;22;20866;-84
2022/08/25 00:12:41;;;;;;;6.80;3.67;;;20.80;12.30;;;;;;6250849;22;20415;-84
2022/08/25 00:15:24;;;;;;;7.00;3.17;;;20.80;11.80;;;;;;6261523;22;20492;-84
2022/08/25 00:17:59;;;;;;;9.03;4.17;;;20.70;11.80;;;;;;6262077;23;20405;-83
2022/08/25 00:21:05;;;;;;;7.10;4.20;;;20.60;12.70;;;;;;6262479;23;20395;-85
2022/08/25 00:23:40;;;;;;;14.73;3.97;;;20.30;14.60;;;;;;6252050;22;20418;-85
2022/08/25 00:26:10;;;;;;;10.07;4.50;;;20.10;15.40;;;;;;6252296;23;20419;-84
2022/08/25 00:28:43;;;;;;;10.40;4.20;;;20.00;16.70;;;;;;6262276;23;20793;-84
2022/08/25 00:31:23;;;;;;;26.93;4.83;;;19.80;17.60;;;;;;6251935;22;20539;-84
2022/08/25 00:34:11;;;;;;;9.97;4.77;;;19.60;18.80;;;;;;6262223;22;20450;-84
2022/08/25 00:36:46;;;;;;;6.40;3.50;;;19.40;19.30;;;;;;6262880;23;20448;-84
2022/08/25 00:39:15;;;;;;;9.60;3.93;;;19.40;19.30;;;;;;6263308;23;20397;-84
2022/08/25 00:41:55;;;;;;;9.77;4.23;;;19.20;20.10;;;;;;6262763;23;20451;-85
2022/08/25 00:44:30;;;;;;;10.17;4.10;;;19.10;20.80;;;;;;6263161;22;20444;-85
2022/08/25 00:47:08;;;;;;;6.70;4.27;;;19.00;21.30;;;;;;6263065;23;20438;-84
2022/08/25 00:49:56;;;;;;;16.23;4.60;;;18.90;21.30;;;;;;6262504;23;20416;-85
2022/08/25 00:52:29;;;;;;;6.63;3.77;;;18.80;21.80;;;;;;6253050;23;20490;-84
2022/08/25 00:55:00;;;;;;;7.43;3.47;;;18.80;22.40;;;;;;6262043;22;20744;-85
2022/08/25 00:57:38;;;;;;;9.17;4.30;;;18.80;23.10;;;;;;6262267;22;20403;-85
2022/08/25 01:03:10;;;;;;;7.93;4.10;;;18.60;23.20;;;;;;6249507;22;20412;-85
2022/08/25 01:08:41;;;;;;;6.93;3.87;;;18.50;24.60;;;;;;6251785;22;20413;-85
2022/08/25 01:11:12;;;;;;;11.00;4.53;;;18.50;25.00;;;;;;6251836;23;20423;-84
2022/08/25 01:13:50;;;;;;;8.03;4.50;;;18.40;24.80;;;;;;6251698;22;20504;-84
2022/08/25 01:16:30;;;;;;;10.87;4.10;;;18.40;25.20;;;;;;6262119;23;20441;-85
2022/08/25 01:19:00;;;;;;;12.20;4.30;;;18.40;25.30;;;;;;6263004;23;20441;-85
2022/08/25 01:21:48;;;;;;;12.07;4.33;;;18.50;24.90;;;;;;6262517;23;20755;-84
2022/08/25 01:24:26;;;;;;;8.90;4.23;;;18.50;24.40;;;;;;6262425;22;20495;-85
2022/08/25 01:27:16;;;;;;;10.00;4.10;;;18.40;25.10;;;;;;6262085;23;20966;-84
2022/08/25 01:30:02;;;;;;;;;;;;;;;;;;;;;
2022/08/25 01:32:45;;;;;;;8.00;3.80;;;18.30;26.80;;;;;;6250626;23;20490;-86
2022/08/25 01:35:15;;;;;;;12.33;4.60;;;18.10;26.40;;;;;;6251319;22;20434;-85
2022/08/25 01:38:10;;;;;;;8.00;3.70;;;18.20;26.80;;;;;;6261919;23;20417;-85
2022/08/25 01:40:53;;;;;;;7.90;4.03;;;18.20;25.70;;;;;;6246626;22;20434;-84
2022/08/25 01:43:40;;;;;;;9.90;3.80;;;18.20;26.40;;;;;;6262310;22;20430;-85
2022/08/25 01:46:21;;;;;;;6.87;3.77;;;18.30;25.80;;;;;;6261876;23;20418;-85
2022/08/25 01:49:09;;;;;;;9.23;4.27;;;18.20;25.80;;;;;;6261869;23;20418;-85
2022/08/25 01:51:46;;;;;;;12.30;4.53;;;18.10;25.70;;;;;;6261540;23;20434;-85
2022/08/25 01:54:17;;;;;;;8.40;4.40;;;18.00;25.60;;;;;;6262287;22;20436;-85
2022/08/25 01:56:48;;;;;;;9.33;3.30;;;17.80;26.40;;;;;;6261647;23;20412;-84
2022/08/25 01:59:30;;;;;;;7.67;4.47;;;17.90;26.50;;;;;;6260651;23;20580;-85
2022/08/25 02:02:01;;;;;;;7.90;4.00;;;17.90;26.90;;;;;;6261909;23;20405;-84
2022/08/25 02:04:57;;;;;;;13.10;3.90;;;18.10;26.60;;;;;;6260399;22;20444;-84
2022/08/25 02:07:32;;;;;;;6.40;3.77;;;17.90;26.70;;;;;;6260907;23;20419;-83
2022/08/25 02:10:01;;;;;;;13.40;4.10;;;18.00;26.90;;;;;;6261901;23;20422;-84
2022/08/25 02:12:39;;;;;;;7.93;4.70;;;17.90;27.30;;;;;;6262492;22;20440;-85
2022/08/25 02:15:16;;;;;;;9.47;4.50;;;17.80;28.20;;;;;;6260978;22;20438;-84
2022/08/25 02:18:07;;;;;;;;;;;;;;;;;;;;;
2022/08/25 02:20:55;;;;;;;11.23;4.30;;;17.90;28.30;;;;;;6252283;22;20429;-84
2022/08/25 02:23:23;;;;;;;9.97;4.20;;;18.00;27.40;;;;;;6263420;22;20416;-84
2022/08/25 02:26:12;;;;;;;7.70;4.40;;;18.00;27.90;;;;;;6262779;23;20426;-84
2022/08/25 02:28:47;;;;;;;12.17;3.47;;;18.00;27.80;;;;;;6263705;23;20914;-84
2022/08/25 02:34:18;;;;;;;8.63;4.30;;;18.20;27.80;;;;;;6251901;22;20435;-84
2022/08/25 02:36:54;;;;;;;9.70;4.43;;;18.10;26.90;;;;;;6262233;23;20414;-84
2022/08/25 02:39:25;;;;;;;7.27;4.13;;;18.10;27.00;;;;;;6263037;23;20413;-84
2022/08/25 02:42:14;;;;;;;8.90;4.47;;;18.00;27.20;;;;;;6263801;23;20427;-85
2022/08/25 02:44:50;;;;;;;8.53;4.40;;;17.80;27.20;;;;;;6251043;22;20441;-84
2022/08/25 02:47:31;;;;;;;7.60;4.27;;;17.70;28.20;;;;;;6263057;23;20508;-85
2022/08/25 02:50:02;;;;;;;7.53;4.20;;;17.70;28.20;;;;;;6263846;23;20468;-84
2022/08/25 02:52:39;;;;;;;9.50;4.83;;;17.60;30.00;;;;;;6263886;23;20429;-84
2022/08/25 02:55:22;;;;;;;9.63;4.40;;;17.70;30.30;;;;;;6261896;22;20992;-84
2022/08/25 02:57:58;;;;;;;9.80;5.20;;;17.60;30.10;;;;;;6263729;23;20414;-84
2022/08/25 03:00:30;;;;;;;6.43;4.30;;;17.60;30.10;;;;;;6263680;23;20400;-84
2022/08/25 03:03:12;;;;;;;7.87;4.10;;;17.60;29.80;;;;;;6263106;23;20433;-84
2022/08/25 03:05:55;;;;;;;7.33;4.40;;;17.70;29.50;;;;;;6262822;22;20524;-84
2022/08/25 03:08:22;;;;;;;7.43;4.80;;;17.80;28.80;;;;;;6264054;23;20410;-85
2022/08/25 03:11:02;;;;;;;10.40;3.83;;;17.80;29.70;;;;;;6253027;23;20441;-85
2022/08/25 03:13:42;;;;;;;10.13;4.10;;;17.60;28.40;;;;;;6262901;22;20418;-84
2022/08/25 03:16:15;;;;;;;7.63;4.03;;;17.60;28.40;;;;;;6262463;23;20942;-85
2022/08/25 03:21:30;;;;;;;7.20;3.60;;;17.80;28.90;;;;;;6250793;22;20445;-85
2022/08/25 03:24:02;;;;;;;8.43;3.40;;;17.50;28.60;;;;;;6263076;22;20426;-84
2022/08/25 03:29:19;;;;;;;7.10;4.10;;;17.60;29.40;;;;;;6253687;23;20384;-85
2022/08/25 03:31:56;;;;;;;7.40;4.47;;;17.40;29.60;;;;;;6263390;23;20468;-85
2022/08/25 03:34:29;;;;;;;15.00;4.67;;;17.30;29.80;;;;;;6263093;22;20440;-84
2022/08/25 03:37:04;;;;;;;9.53;4.60;;;17.20;30.00;;;;;;6263385;23;20406;-85
2022/08/25 03:39:36;;;;;;;8.40;4.13;;;17.10;30.30;;;;;;6253581;23;20430;-85
2022/08/25 03:42:04;;;;;;;7.73;4.37;;;17.10;31.20;;;;;;6263189;23;20437;-85
2022/08/25 03:44:38;;;;;;;9.50;3.70;;;17.00;31.60;;;;;;6262415;22;20520;-85
2022/08/25 03:47:20;;;;;;;8.37;4.60;;;16.90;32.40;;;;;;6254030;22;20439;-85
2022/08/25 03:49:51;;;;;;;10.87;5.20;;;16.90;32.40;;;;;;6262681;23;21010;-84
2022/08/25 03:52:31;;;;;;;13.33;4.40;;;16.90;32.40;;;;;;6262698;23;20487;-85
2022/08/25 03:55:05;;;;;;;7.50;4.13;;;16.80;32.30;;;;;;6262410;22;20434;-84
2022/08/25 03:57:35;;;;;;;11.33;6.47;;;16.70;32.20;;;;;;6263438;23;20393;-84
2022/08/25 04:00:04;;;;;;;7.43;4.30;;;16.80;32.70;;;;;;6263347;23;20488;-85
2022/08/25 04:05:48;;;;;;;7.60;3.50;;;16.70;33.00;;;;;;6261394;22;20940;-84
2022/08/25 04:11:11;;;;;;;7.80;4.00;;;16.90;33.40;;;;;;6251635;22;20481;-85
2022/08/25 04:13:46;;;;;;;11.70;4.87;;;17.00;32.50;;;;;;6262692;22;20437;-85
2022/08/25 04:16:18;;;;;;;9.70;4.37;;;17.30;32.80;;;;;;6252578;22;20415;-85
2022/08/25 04:18:46;;;;;;;8.87;4.00;;;17.10;32.60;;;;;;6262757;23;20398;-85
2022/08/25 04:21:23;;;;;;;7.50;4.03;;;17.10;32.60;;;;;;6252508;23;20416;-84
2022/08/25 04:23:51;;;;;;;14.23;5.10;;;17.00;32.50;;;;;;6262769;22;20432;-84
2022/08/25 04:26:34;;;;;;;8.70;5.10;;;16.90;33.20;;;;;;6259393;23;20422;-84
2022/08/25 04:29:08;;;;;;;17.10;5.40;;;16.70;32.20;;;;;;6263390;23;20421;-84
2022/08/25 04:32:09;;;;;;;8.10;5.17;;;16.70;32.80;;;;;;6252562;22;20436;-84
2022/08/25 04:34:40;;;;;;;8.30;5.33;;;16.50;33.90;;;;;;6249712;22;20438;-84
2022/08/25 04:37:46;;;;;;;11.43;5.40;;;16.50;35.20;;;;;;6263747;23;20800;-85
2022/08/25 04:43:31;;;;;;;11.37;4.80;;;16.40;37.60;;;;;;6241956;22;20420;-84
2022/08/25 04:46:06;;;;;;;13.13;5.50;;;16.60;37.90;;;;;;6253433;23;20396;-84
2022/08/25 04:48:38;;;;;;;9.20;6.37;;;16.70;37.70;;;;;;6263567;23;20389;-84
2022/08/25 04:51:12;;;;;;;11.60;5.87;;;16.60;38.20;;;;;;6252815;22;20458;-84
2022/08/25 04:53:58;;;;;;;9.63;5.40;;;16.50;38.20;;;;;;6262999;22;20444;-84
2022/08/25 04:56:26;;;;;;;8.07;4.77;;;16.40;39.60;;;;;;6250793;22;20421;-81
2022/08/25 04:58:53;;;;;;;7.97;5.03;;;16.70;39.00;;;;;;6248312;23;20413;-81
2022/08/25 05:01:23;;;;;;;10.97;4.80;;;16.70;37.50;;;;;;6248146;23;20414;-80
2022/08/25 05:03:55;;;;;;;8.13;5.00;;;16.60;38.10;;;;;;6247814;22;20836;-80
2022/08/25 05:06:23;;;;;;;11.70;6.27;;;16.60;38.70;;;;;;6248792;23;20392;-81
2022/08/25 05:08:50;;;;;;;8.20;5.63;;;16.60;39.00;;;;;;6246941;23;20409;-81
2022/08/25 05:11:17;;;;;;;9.57;6.00;;;16.50;38.90;;;;;;6248157;22;20408;-81
2022/08/25 05:13:46;;;;;;;9.80;6.30;;;16.60;39.60;;;;;;6246688;22;20762;-81
2022/08/25 05:16:13;;;;;;;10.97;6.73;;;16.70;41.30;;;;;;6246992;23;20920;-81
2022/08/25 05:18:40;;;;;;;13.40;5.90;;;16.60;41.20;;;;;;6247525;23;20414;-80
2022/08/25 05:21:11;;;;;;;12.33;5.93;;;16.60;42.20;;;;;;6247795;23;20413;-80
2022/08/25 05:23:38;;;;;;;12.30;7.13;;;16.70;43.10;;;;;;6247041;22;20958;-81
2022/08/25 05:26:07;;;;;;;8.33;6.17;;;16.80;43.30;;;;;;6246992;23;20443;-80
2022/08/25 05:28:34;;;;;;;11.00;6.47;;;16.90;43.00;;;;;;6246522;23;20413;-80
2022/08/25 05:31:03;;;;;;;14.40;6.73;;;17.10;42.70;;;;;;6248130;23;20416;-80
2022/08/25 05:33:31;;;;;;;17.40;5.60;;;17.40;41.90;;;;;;6247474;22;20409;-80
2022/08/25 05:35:57;;;;;;;15.67;5.80;;;17.60;40.90;;;;;;6246715;23;20726;-79
2022/08/25 05:38:26;;;;;;;8.13;5.27;;;17.90;39.40;;;;;;6257500;23;20418;-79
2022/08/25 05:40:56;;;;;;;11.63;4.80;;;18.20;40.30;;;;;;6247979;22;20415;-80
2022/08/25 05:43:23;;;;;;;8.30;5.20;;;18.40;36.50;;;;;;6247333;22;20444;-80
2022/08/25 05:45:50;;;;;;;7.70;4.13;;;18.40;33.80;;;;;;6246856;23;20417;-80
2022/08/25 05:48:16;;;;;;;7.60;4.80;;;18.60;34.90;;;;;;6247842;22;20466;-79
2022/08/25 05:50:51;;;;;;;9.07;5.00;;;18.70;36.30;;;;;;6248725;23;20438;-80
2022/08/25 05:53:19;;;;;;;8.97;4.17;;;18.70;34.20;;;;;;6249922;22;20393;-80
2022/08/25 05:55:47;;;;;;;11.13;4.47;;;18.70;34.10;;;;;;6249984;23;20409;-80
2022/08/25 05:58:14;;;;;;;8.07;4.43;;;19.00;34.60;;;;;;6259847;23;20407;-80
2022/08/25 06:00:41;;;;;;;10.33;4.70;;;18.90;33.90;;;;;;6249627;23;20412;-80
2022/08/25 06:03:07;;;;;;;8.23;4.40;;;18.90;34.30;;;;;;6249072;23;20475;-79
2022/08/25 06:05:35;;;;;;;10.13;4.70;;;19.20;33.00;;;;;;6259874;22;20477;-80
2022/08/25 06:08:02;;;;;;;13.23;4.97;;;19.30;32.20;;;;;;6259528;23;20167;-80
2022/08/25 06:10:29;;;;;;;9.33;4.63;;;19.30;32.40;;;;;;6259865;23;20404;-80
2022/08/25 06:12:57;;;;;;;7.37;4.10;;;19.50;31.40;;;;;;6259676;23;20410;-79
2022/08/25 06:15:24;;;;;;;8.00;4.33;;;19.70;31.00;;;;;;6247671;22;20409;-78
2022/08/25 06:17:52;;;;;;;10.77;4.43;;;19.90;30.60;;;;;;6247660;23;20416;-78
2022/08/25 06:20:25;;;;;;;10.03;5.33;;;20.00;31.20;;;;;;6249032;23;20413;-78
2022/08/25 06:22:52;;;;;;;12.30;4.77;;;20.20;31.40;;;;;;6248135;23;20423;-80
2022/08/25 06:25:22;;;;;;;10.30;4.27;;;20.30;29.90;;;;;;6247649;22;20766;-79
2022/08/25 06:27:49;;;;;;;9.13;3.80;;;20.50;29.50;;;;;;6247773;23;20749;-78
2022/08/25 06:30:20;;;;;;;9.20;4.07;;;20.60;28.50;;;;;;6248180;23;20964;-79
2022/08/25 06:32:48;;;;;;;16.80;5.30;;;20.90;28.10;;;;;;6248117;23;20399;-78
2022/08/25 06:35:18;;;;;;;8.60;4.50;;;21.00;27.80;;;;;;6247671;22;20766;-78
2022/08/25 06:37:45;;;;;;;9.30;4.13;;;21.20;27.40;;;;;;6247958;22;20423;-78
2022/08/25 06:40:13;;;;;;;9.47;3.80;;;21.30;27.10;;;;;;6246544;22;20387;-78
2022/08/25 06:42:40;;;;;;;10.40;4.47;;;21.40;26.10;;;;;;6247529;23;20442;-78
2022/08/25 06:45:08;;;;;;;14.53;5.40;;;21.60;25.80;;;;;;6256682;22;20428;-78
2022/08/25 06:47:36;;;;;;;8.40;3.80;;;21.70;24.80;;;;;;6246925;23;20417;-80
2022/08/25 06:50:04;;;;;;;9.77;4.10;;;21.90;24.10;;;;;;6247657;23;20740;-79
2022/08/25 06:52:31;;;;;;;12.07;4.50;;;22.00;23.60;;;;;;6257668;23;20413;-78
2022/08/25 06:54:58;;;;;;;15.37;4.50;;;22.20;23.40;;;;;;6247379;22;20808;-78
2022/08/25 06:57:25;;;;;;;10.63;4.13;;;22.40;22.70;;;;;;6248059;23;20411;-79
2022/08/25 06:59:52;;;;;;;10.00;3.90;;;22.40;21.70;;;;;;6248104;23;20412;-78
2022/08/25 07:02:19;;;;;;;13.77;5.10;;;22.70;22.80;;;;;;6247636;23;20438;-79
2022/08/25 07:04:47;;;;;;;8.80;4.87;;;22.70;21.60;;;;;;6259456;22;20816;-78
2022/08/25 07:07:13;;;;;;;13.10;4.13;;;22.80;21.20;;;;;;6247660;23;20939;-79
2022/08/25 07:09:40;;;;;;;8.27;3.80;;;22.90;21.80;;;;;;6248469;23;20409;-79
2022/08/25 07:12:07;;;;;;;10.57;4.10;;;23.10;21.50;;;;;;6248336;23;20415;-80
2022/08/25 07:14:35;;;;;;;10.13;4.17;;;23.20;20.80;;;;;;6247879;22;20431;-79
2022/08/25 07:17:01;;;;;;;12.70;3.80;;;23.30;19.60;;;;;;6248529;23;20472;-79
2022/08/25 07:19:28;;;;;;;17.83;4.20;;;23.50;19.40;;;;;;6248166;23;20419;-79
2022/08/25 07:21:57;;;;;;;8.30;4.13;;;23.60;18.60;;;;;;6248361;22;20424;-79
2022/08/25 07:24:23;;;;;;;7.50;3.60;;;23.70;19.10;;;;;;6248189;22;20438;-79
2022/08/25 07:26:51;;;;;;;8.87;3.87;;;23.80;17.20;;;;;;6247779;23;20767;-79
2022/08/25 07:29:19;;;;;;;7.00;3.97;;;24.00;16.00;;;;;;6248551;23;20452;-79
2022/08/25 07:31:46;;;;;;;9.47;3.87;;;24.10;15.20;;;;;;6248826;23;20416;-79
2022/08/25 07:36:59;;;;;;;7.60;3.83;;;24.40;15.30;;;;;;6248016;23;20383;-79
2022/08/25 07:39:45;;;;;;;6.20;3.10;;;24.40;13.30;;;;;;6250666;23;20421;-85
2022/08/25 07:42:15;;;;;;;6.47;3.83;;;24.50;12.30;;;;;;6261904;23;20408;-83
2022/08/25 07:48:01;;;;;;;8.80;3.47;;;24.70;12.60;;;;;;6244483;22;20428;-84
2022/08/25 07:50:54;;;;;;;13.17;3.97;;;24.80;11.20;;;;;;6253201;23;20393;-86
2022/08/25 07:53:23;;;;;;;7.00;3.40;;;24.70;10.50;;;;;;6211112;22;20425;-85
2022/08/25 07:56:02;;;;;;;8.33;4.57;;;25.10;9.80;;;;;;6252886;22;20411;-85
2022/08/25 07:59:12;;;;;;;7.93;3.70;;;25.30;8.30;;;;;;6262893;23;20417;-84
2022/08/25 08:01:40;;;;;;;7.83;3.53;;;25.80;8.20;;;;;;6248976;22;20422;-85
2022/08/25 08:04:37;;;;;;;6.47;3.10;;;26.30;6.60;;;;;;6262774;22;20431;-85
2022/08/25 08:10:57;;;;;;;;;;;;;;;;;;;;;
2022/08/25 08:14:05;;;;;;;11.33;3.73;;;27.20;2.50;;;;;;6251749;22;20392;-86
2022/08/25 08:16:37;;;;;;;7.50;3.40;;;27.50;1.60;;;;;;6253196;22;20389;-85
2022/08/25 08:19:08;;;;;;;10.33;4.30;;;27.90;1.10;;;;;;6253185;23;20446;-83
2022/08/25 08:21:40;;;;;;;12.60;4.07;;;28.00;1.00;;;;;;6263112;23;20385;-85
2022/08/25 08:24:24;;;;;;;11.33;3.93;;;28.30;1.00;;;;;;6263832;22;20444;-84
2022/08/25 08:27:17;;;;;;;8.73;3.83;;;28.60;1.00;;;;;;6262882;23;20463;-85
2022/08/25 08:30:38;;;;;;;7.77;3.40;;;28.90;1.00;;;;;;6262754;23;20399;-85
2022/08/25 08:33:10;;;;;;;8.27;4.13;;;28.90;1.00;;;;;;6246887;23;20423;-85
2022/08/25 08:35:39;;;;;;;7.07;3.37;;;29.00;1.00;;;;;;6263120;22;20537;-83
2022/08/25 08:38:24;;;;;;;7.57;3.47;;;29.20;1.00;;;;;;6263974;22;20460;-85
2022/08/25 08:43:50;;;;;;;8.37;3.53;;;29.20;1.00;;;;;;6212982;22;20445;-85
2022/08/25 08:46:40;;;;;;;10.57;3.50;;;29.50;1.00;;;;;;6263514;22;20441;-84
2022/08/25 08:49:23;;;;;;;10.43;3.30;;;30.00;1.00;;;;;;6262797;23;20418;-84
2022/08/25 08:52:10;;;;;;;9.57;3.90;;;30.40;1.00;;;;;;6252849;23;20461;-85
2022/08/25 08:55:04;;;;;;;10.60;3.70;;;30.70;1.00;;;;;;6245320;23;20436;-84
2022/08/25 08:57:54;;;;;;;7.47;4.30;;;30.80;1.00;;;;;;6232560;23;20413;-85
2022/08/25 09:00:30;;;;;;;11.50;4.13;;;31.00;1.00;;;;;;6233384;23;20915;-85
2022/08/25 09:03:26;;;;;;;12.80;4.53;;;31.00;1.00;;;;;;6222866;23;20418;-86
2022/08/25 09:06:01;;;;;;;6.53;3.73;;;30.70;1.00;;;;;;6222107;23;20421;-85
2022/08/25 09:08:28;;;;;;;7.90;3.70;;;31.10;1.00;;;;;;6230924;23;20491;-85
2022/08/25 09:11:03;;;;;;;7.63;3.90;;;31.70;1.00;;;;;;6231316;23;20390;-85
2022/08/25 09:14:10;;;;;;;9.40;5.20;;;32.30;1.00;;;;;;6231186;23;20406;-84
2022/08/25 09:16:58;;;;;;;6.80;3.67;;;32.00;1.00;;;;;;6231605;23;20405;-85
2022/08/25 09:19:50;;;;;;;8.07;4.00;;;32.50;1.00;;;;;;6221451;23;20386;-85
2022/08/25 09:22:44;;;;;;;11.37;3.03;;;32.40;1.00;;;;;;6211340;23;20406;-85
2022/08/25 09:25:49;;;;;;;6.43;3.73;;;32.30;1.00;;;;;;6230806;23;20458;-85
2022/08/25 09:28:22;;;;;;;9.03;3.80;;;32.50;1.00;;;;;;6231638;23;20436;-86
2022/08/25 09:31:16;;;;;;;9.40;4.70;;;32.80;1.00;;;;;;6231674;23;20438;-85
2022/08/25 09:33:44;;;;;;;7.10;3.57;;;32.70;1.00;;;;;;6221487;23;20755;-85
2022/08/25 09:36:11;;;;;;;7.10;3.70;;;33.00;1.00;;;;;;6231089;23;20385;-85
2022/08/25 09:38:40;;;;;;;7.40;3.90;;;33.30;1.00;;;;;;6230962;23;20379;-85
2022/08/25 09:41:10;;;;;;;6.57;4.13;;;33.60;1.00;;;;;;6230595;23;20416;-85
2022/08/25 09:43:41;;;;;;;7.27;4.20;;;34.00;1.00;;;;;;6231996;23;20413;-85
2022/08/25 09:46:19;;;;;;;14.10;4.33;;;33.60;1.00;;;;;;6220975;23;20964;-85
2022/08/25 09:48:58;;;;;;;6.23;3.70;;;34.20;1.00;;;;;;6232128;23;20363;-85
2022/08/25 09:51:28;;;;;;;8.90;3.83;;;33.90;1.00;;;;;;6231609;23;20415;-85
2022/08/25 09:54:03;;;;;;;12.00;4.07;;;33.90;1.00;;;;;;6220142;23;20535;-85
2022/08/25 09:56:33;;;;;;;7.53;3.70;;;34.40;1.00;;;;;;6220977;23;20407;-85
2022/08/25 09:59:22;;;;;;;6.90;3.60;;;34.80;1.00;;;;;;6221798;23;20387;-84
2022/08/25 10:02:20;;;;;;;9.83;3.50;;;35.50;1.00;;;;;;6220362;23;20478;-85
2022/08/25 10:05:19;;;;;;;8.27;3.60;;;35.20;1.00;;;;;;6218415;23;20456;-84
2022/08/25 10:07:54;;;;;;;6.80;3.60;;;35.00;1.00;;;;;;6228267;23;20910;-86
2022/08/25 10:10:30;;;;;;;12.50;4.10;;;35.10;1.00;;;;;;6219789;23;20396;-86
2022/08/25 10:12:59;;;;;;;6.50;3.33;;;34.50;1.00;;;;;;6230949;23;20491;-84
2022/08/25 10:15:33;;;;;;;5.60;2.93;;;35.00;1.00;;;;;;6229504;23;20431;-85
2022/08/25 10:18:24;;;;;;;9.88;3.80;;;35.40;1.00;;;;;;6228306;23;20418;-81
2022/08/25 10:21:07;;;;;;;6.97;3.57;;;35.80;1.00;;;;;;6217385;23;20509;-82
2022/08/25 10:23:36;;;;;;;8.60;3.77;;;36.10;1.00;;;;;;6215114;23;20898;-82
2022/08/25 10:26:09;;;;;;;9.03;3.47;;;36.00;1.00;;;;;;6216216;23;20386;-81
2022/08/25 10:28:47;;;;;;;18.00;5.30;;;36.30;1.00;;;;;;6215451;23;20874;-82
2022/08/25 10:31:22;;;;;;;9.03;3.93;;;36.50;1.00;;;;;;6216313;23;20379;-82
2022/08/25 10:34:07;;;;;;;5.93;3.10;;;36.40;1.00;;;;;;6219123;23;20414;-85
2022/08/25 10:36:53;;;;;;;5.40;3.00;;;35.60;1.00;;;;;;6229847;23;20431;-85
2022/08/25 10:39:37;;;;;;;7.73;3.40;;;35.80;1.00;;;;;;6233502;23;20389;-85
2022/08/25 10:42:18;;;;;;;6.07;2.83;;;36.50;1.00;;;;;;6233602;23;20378;-85
2022/08/25 10:48:35;;;;;;;6.67;2.53;;;37.20;1.00;;;;;;6235646;23;20387;-85
2022/08/25 10:51:09;;;;;;;8.20;3.33;;;37.00;1.00;;;;;;6100712;23;20434;-85
2022/08/25 10:57:42;;;;;;;7.40;3.60;;;37.30;1.00;;;;;;6032688;23;20857;-86
2022/08/25 11:00:36;;;;;;;;;;;;;;;;;;;;;
2022/08/25 11:03:28;;;;;;;10.17;3.60;;;37.70;1.00;;;;;;6200907;23;20792;-86
2022/08/25 11:06:00;;;;;;;10.53;3.33;;;38.00;1.00;;;;;;6230969;23;20390;-85
2022/08/25 11:08:43;;;;;;;8.20;3.00;;;38.20;1.00;;;;;;6230903;23;20442;-88
2022/08/25 11:11:16;;;;;;;5.87;2.93;;;37.90;1.00;;;;;;6229707;23;20416;-85
2022/08/25 11:13:48;;;;;;;10.00;2.80;;;37.70;1.00;;;;;;6219658;23;20461;-85
2022/08/25 11:16:19;;;;;;;6.17;2.70;;;37.70;1.00;;;;;;6220718;23;20426;-85
2022/08/25 11:18:59;;;;;;;8.63;2.80;;;37.40;1.00;;;;;;6220070;23;20371;-86
2022/08/25 11:21:34;;;;;;;5.60;2.73;;;37.10;1.00;;;;;;6220557;23;20377;-85
2022/08/25 11:24:11;;;;;;;6.57;2.77;;;37.30;1.00;;;;;;6222060;23;20471;-86
2022/08/25 11:26:45;;;;;;;8.30;2.87;;;37.60;1.00;;;;;;6221714;23;20881;-86
2022/08/25 11:29:16;;;;;;;5.23;2.50;;;37.80;1.00;;;;;;6229768;23;20386;-85
2022/08/25 11:31:54;;;;;;;6.93;2.63;;;38.10;1.00;;;;;;6229661;23;20445;-86
2022/08/25 11:34:24;;;;;;;5.70;2.53;;;38.60;1.00;;;;;;6229644;23;20511;-86
2022/08/25 11:36:59;;;;;;;6.43;2.10;;;39.00;1.00;;;;;;6229022;23;20408;-86
2022/08/25 11:39:41;;;;;;;6.00;2.17;;;39.00;1.00;;;;;;6229145;23;20493;-86
2022/08/25 11:42:23;;;;;;;10.50;2.90;;;39.60;1.00;;;;;;6229881;23;20475;-86
2022/08/25 11:45:02;;;;;;;7.90;2.97;;;39.00;1.00;;;;;;6219180;23;20418;-85
2022/08/25 11:47:44;;;;;;;5.63;2.77;;;39.50;1.00;;;;;;6228932;23;20388;-86
2022/08/25 11:50:27;;;;;;;5.57;2.53;;;39.60;1.00;;;;;;6219509;23;20399;-86
2022/08/25 11:52:55;;;;;;;6.63;3.07;;;39.50;1.00;;;;;;6219652;23;20877;-86
2022/08/25 11:55:47;;;;;;;5.33;2.70;;;39.20;1.00;;;;;;6220349;23;20769;-86
2022/08/25 11:58:46;;;;;;;6.70;3.17;;;39.50;1.00;;;;;;6219771;23;20390;-86
2022/08/25 12:01:46;;;;;;;13.13;2.20;;;39.30;1.00;;;;;;6125645;23;20395;-85
2022/08/25 12:04:32;;;;;;;8.20;2.40;;;39.90;1.00;;;;;;6217726;23;20855;-85
2022/08/25 12:07:19;;;;;;;6.97;2.60;;;40.50;1.00;;;;;;6227874;23;20388;-85
2022/08/25 12:10:19;;;;;;;5.37;2.40;;;41.10;1.00;;;;;;6228078;23;20411;-86
2022/08/25 12:13:21;;;;;;;6.10;2.47;;;40.80;1.00;;;;;;6202636;23;20385;-86
2022/08/25 12:16:04;;;;;;;5.00;2.40;;;41.10;1.00;;;;;;6218165;23;20411;-85
2022/08/25 12:18:51;;;;;;;9.00;2.60;;;41.30;1.00;;;;;;6218732;23;20371;-86
2022/08/25 12:21:36;;;;;;;7.10;3.10;;;42.20;1.00;;;;;;6218204;23;20403;-86
2022/08/25 12:24:12;;;;;;;5.73;2.20;;;41.60;1.00;;;;;;6218841;23;20463;-86
2022/08/25 12:26:57;;;;;;;;;;;;;;;;;;;;;
2022/08/25 12:29:32;;;;;;;9.00;2.70;;;41.80;1.00;;;;;;6217884;23;20422;-85
2022/08/25 12:32:34;;;;;;;13.43;3.00;;;41.30;1.00;;;;;;6227827;23;20388;-85
2022/08/25 12:35:23;;;;;;;6.87;2.40;;;41.30;1.00;;;;;;6218949;23;20434;-84
2022/08/25 12:38:00;;;;;;;6.00;2.37;;;41.20;1.00;;;;;;6219258;23;20403;-86
2022/08/25 12:40:33;;;;;;;6.83;2.40;;;41.40;1.00;;;;;;6219458;23;20445;-86
2022/08/25 12:43:25;;;;;;;5.90;2.10;;;41.20;1.00;;;;;;6228886;23;20917;-86
2022/08/25 12:45:53;;;;;;;9.60;2.80;;;41.80;1.00;;;;;;6226901;23;20415;-86
2022/08/25 12:48:56;;;;;;;6.23;2.33;;;42.30;1.00;;;;;;6219432;23;20418;-87
2022/08/25 12:51:28;;;;;;;6.80;2.70;;;41.80;1.00;;;;;;6218876;23;20416;-86
2022/08/25 12:54:11;;;;;;;7.13;2.73;;;40.90;1.00;;;;;;6219328;23;20408;-85
2022/08/25 12:56:42;;;;;;;7.20;3.07;;;40.60;1.00;;;;;;6218938;23;20381;-86
2022/08/25 12:59:15;;;;;;;5.70;2.97;;;40.30;1.00;;;;;;6219426;23;20479;-87
2022/08/25 13:02:44;;;;;;;8.50;2.87;;;40.70;1.00;;;;;;6217259;23;20385;-86
2022/08/25 13:05:47;;;;;;;11.33;2.97;;;40.80;1.00;;;;;;6136361;23;20449;-85
2022/08/25 13:12:12;;;;;;;5.60;2.60;;;42.70;1.00;;;;;;6202530;23;20407;-87
2022/08/25 13:14:41;;;;;;;5.20;2.47;;;42.10;1.00;;;;;;6229019;23;20412;-85
2022/08/25 13:17:08;;;;;;;5.83;2.90;;;41.60;1.00;;;;;;6230102;23;20383;-86
2022/08/25 13:19:37;;;;;;;7.13;3.00;;;41.00;1.00;;;;;;6229810;23;20785;-86
2022/08/25 13:22:29;;;;;;;;;;;;;;;;;;;;;
2022/08/25 13:25:01;;;;;;;6.30;3.30;;;41.10;1.00;;;;;;6231021;23;20402;-85
2022/08/25 13:27:35;;;;;;;7.10;2.80;;;41.20;1.00;;;;;;6229561;23;20419;-86
2022/08/25 13:30:04;;;;;;;5.93;2.83;;;41.10;1.00;;;;;;6229261;23;20449;-86
2022/08/25 13:32:34;;;;;;;6.03;3.00;;;40.90;1.00;;;;;;6228251;23;20519;-86
2022/08/25 13:35:12;;;;;;;6.53;2.50;;;41.70;1.00;;;;;;6229111;23;21016;-85
2022/08/25 13:37:39;;;;;;;7.60;2.80;;;41.10;1.00;;;;;;6229059;23;20401;-84
2022/08/25 13:40:15;;;;;;;5.90;3.07;;;40.80;1.00;;;;;;6229556;23;20404;-84
2022/08/25 13:42:45;;;;;;;7.50;3.40;;;40.90;1.00;;;;;;6229607;23;20415;-85
2022/08/25 13:45:16;;;;;;;5.10;2.60;;;41.00;1.00;;;;;;6218648;23;20466;-84
2022/08/25 13:48:20;;;;;;;7.27;3.20;;;40.60;1.00;;;;;;6220974;23;20726;-84
2022/08/25 13:50:53;;;;;;;7.00;3.40;;;39.90;1.00;;;;;;6205540;23;20481;-85
2022/08/25 13:53:29;;;;;;;5.97;3.00;;;40.20;1.00;;;;;;6229478;23;20887;-85
2022/08/25 13:56:00;;;;;;;6.67;3.20;;;39.80;1.00;;;;;;6219859;23;20378;-84
2022/08/25 13:58:30;;;;;;;5.43;3.17;;;40.40;1.00;;;;;;6189236;23;20375;-84
2022/08/25 14:01:21;;;;;;;6.10;2.87;;;40.10;1.00;;;;;;6188833;23;20458;-86
2022/08/25 14:03:53;;;;;;;6.23;3.00;;;40.60;1.00;;;;;;6199346;23;21008;-85
2022/08/25 14:07:08;;;;;;;8.80;3.90;;;41.10;1.00;;;;;;6191040;23;20439;-86
2022/08/25 14:09:52;;;;;;;7.83;3.80;;;40.90;1.00;;;;;;6200392;23;20732;-84
2022/08/25 14:12:50;;;;;;;7.60;3.53;;;40.10;1.00;;;;;;6201863;23;20412;-84
2022/08/25 14:15:30;;;;;;;5.70;2.90;;;39.10;1.00;;;;;;6203487;23;21038;-85
2022/08/25 14:41:39;;;;;;;7.70;3.40;;;39.50;1.00;;;;;;6013836;23;20421;-84
2022/08/25 14:44:10;;;;;;;5.63;2.67;;;40.20;1.00;;;;;;6058947;23;20496;-85
2022/08/25 14:46:58;;;;;;;5.60;3.17;;;41.20;1.00;;;;;;6161748;23;20766;-85
2022/08/25 14:49:41;;;;;;;9.90;3.63;;;41.60;1.00;;;;;;6205152;23;20479;-87
2022/08/25 14:52:47;;;;;;;;;;;;;;;;;;;;;
2022/08/25 14:55:35;;;;;;;6.10;3.27;;;39.80;1.00;;;;;;6198907;23;20432;-86
2022/08/25 14:58:25;;;;;;;5.47;2.83;;;39.70;1.00;;;;;;6153396;23;20387;-87
2022/08/25 15:00:57;;;;;;;5.63;2.93;;;39.50;1.00;;;;;;6205013;23;20389;-86
2022/08/25 15:04:00;;;;;;;8.97;3.13;;;40.20;1.00;;;;;;6207205;23;20411;-86